Time;durP1;ratioP1;P1;durP2;ratioP2;P2;SDS_P1;SDS_P2;PMS_P1;PMS_P2;Temp;Humidity;BMP_temperature;BMP_pressure;BME280_temperature;BME280_humidity;BME280_pressure;Samples;Min_cycle;Max_cycle;Signal;HPM_P1;HPM_P2
2022/05/10 00:00:01;;;;;;;8.23;4.90;;;;;;;;;;5009950;28;20121;-63
2022/05/10 00:02:27;;;;;;;9.82;4.82;;;;;;;;;;5011426;28;20489;-63
2022/05/10 00:04:53;;;;;;;9.32;4.80;;;;;;;;;;5011117;28;20034;-64
2022/05/10 00:07:21;;;;;;;11.13;5.53;;;;;;;;;;5011473;28;20092;-63
2022/05/10 00:09:47;;;;;;;10.77;5.03;;;;;;;;;;5010633;28;20076;-63
2022/05/10 00:12:13;;;;;;;11.82;5.20;;;;;;;;;;5010727;28;20034;-63
2022/05/10 00:14:39;;;;;;;9.70;4.95;;;;;;;;;;5011493;28;20030;-63
2022/05/10 00:17:06;;;;;;;9.27;4.80;;;;;;;;;;5011845;28;20041;-63
2022/05/10 00:19:32;;;;;;;8.80;5.13;;;;;;;;;;5010325;28;20040;-63
2022/05/10 00:21:58;;;;;;;7.82;4.40;;;;;;;;;;5010538;28;20033;-64
2022/05/10 00:24:24;;;;;;;8.50;5.07;;;;;;;;;;5010880;28;20044;-63
2022/05/10 00:26:50;;;;;;;10.18;4.65;;;;;;;;;;5011455;28;20029;-63
2022/05/10 00:29:17;;;;;;;9.57;4.88;;;;;;;;;;5009980;28;20049;-63
2022/05/10 00:31:43;;;;;;;10.70;5.15;;;;;;;;;;5011585;28;20069;-63
2022/05/10 00:34:09;;;;;;;8.15;5.28;;;;;;;;;;5010443;28;20400;-64
2022/05/10 00:36:35;;;;;;;9.88;5.05;;;;;;;;;;5010430;28;20065;-64
2022/05/10 00:39:01;;;;;;;9.18;4.82;;;;;;;;;;5010624;28;20041;-64
2022/05/10 00:41:56;;;;;;;9.18;4.90;;;;;;;;;;5010559;28;20092;-63
2022/05/10 00:44:34;;;;;;;10.13;4.90;;;;;;;;;;5007081;28;20550;-63
2022/05/10 00:47:05;;;;;;;9.43;4.97;;;;;;;;;;5002412;28;20030;-63
2022/05/10 00:49:37;;;;;;;9.20;5.00;;;;;;;;;;5004438;28;20492;-63
2022/05/10 00:52:09;;;;;;;8.10;4.75;;;;;;;;;;5011201;28;20040;-63
2022/05/10 00:54:52;;;;;;;10.38;4.53;;;;;;;;;;5011222;28;20403;-63
2022/05/10 00:57:26;;;;;;;13.85;5.53;;;;;;;;;;5010845;28;20250;-63
2022/05/10 00:59:52;;;;;;;9.68;4.97;;;;;;;;;;5010792;28;20073;-63
2022/05/10 01:02:37;;;;;;;7.78;4.88;;;;;;;;;;5010269;28;20487;-63
2022/05/10 01:05:08;;;;;;;9.65;5.20;;;;;;;;;;5006776;28;20056;-63
2022/05/10 01:07:41;;;;;;;8.55;5.05;;;;;;;;;;5010855;28;20049;-63
2022/05/10 01:10:14;;;;;;;11.50;4.82;;;;;;;;;;5010219;28;20121;-64
2022/05/10 01:12:43;;;;;;;15.45;5.40;;;;;;;;;;5011532;28;20042;-63
2022/05/10 01:15:11;;;;;;;12.73;6.30;;;;;;;;;;4996235;28;20049;-64
2022/05/10 01:17:37;;;;;;;10.07;5.72;;;;;;;;;;5009393;28;20419;-64
2022/05/10 01:20:06;;;;;;;11.73;6.10;;;;;;;;;;5009744;28;20038;-63
2022/05/10 01:22:46;;;;;;;9.25;6.20;;;;;;;;;;5010779;28;20496;-63
2022/05/10 01:25:15;;;;;;;12.18;5.97;;;;;;;;;;5010717;28;20049;-63
2022/05/10 01:27:50;;;;;;;13.52;6.28;;;;;;;;;;5010593;28;20037;-63
2022/05/10 01:30:17;;;;;;;11.35;5.85;;;;;;;;;;5009982;28;20182;-63
2022/05/10 01:35:33;;;;;;;10.65;6.32;;;;;;;;;;5009600;28;20159;-63
2022/05/10 01:38:02;;;;;;;10.45;6.30;;;;;;;;;;5010079;28;20057;-64
2022/05/10 01:40:40;;;;;;;12.05;6.50;;;;;;;;;;5008539;28;20034;-64
2022/05/10 01:43:13;;;;;;;11.88;6.30;;;;;;;;;;5014332;28;20103;-64
2022/05/10 01:45:39;;;;;;;13.02;6.65;;;;;;;;;;5013979;28;20038;-63
2022/05/10 01:48:06;;;;;;;13.00;6.25;;;;;;;;;;5012490;28;20172;-63
2022/05/10 01:50:32;;;;;;;12.30;6.28;;;;;;;;;;5014438;28;20044;-63
2022/05/10 01:53:04;;;;;;;11.95;6.38;;;;;;;;;;5014011;28;20117;-63
2022/05/10 01:55:37;;;;;;;14.90;7.47;;;;;;;;;;5012084;28;20040;-63
2022/05/10 01:58:14;;;;;;;12.32;6.38;;;;;;;;;;5013514;28;20050;-63
2022/05/10 02:00:41;;;;;;;12.30;6.95;;;;;;;;;;5005325;28;20038;-63
2022/05/10 02:03:16;;;;;;;12.82;6.93;;;;;;;;;;5013740;28;20124;-63
2022/05/10 02:05:47;;;;;;;11.05;7.65;;;;;;;;;;5011806;28;20038;-63
2022/05/10 02:08:13;;;;;;;;;;;;;;;;;;5012934;28;20377;-63
2022/05/10 02:10:43;;;;;;;11.80;7.40;;;;;;;;;;5013991;28;19944;-64
2022/05/10 02:13:18;;;;;;;13.45;7.72;;;;;;;;;;5013302;28;20088;-63
2022/05/10 02:15:50;;;;;;;12.65;8.18;;;;;;;;;;5007821;28;20038;-63
2022/05/10 02:18:23;;;;;;;10.32;7.68;;;;;;;;;;5011860;28;20496;-64
2022/05/10 02:20:52;;;;;;;15.35;10.32;;;;;;;;;;5013490;28;20037;-63
2022/05/10 02:23:44;;;;;;;13.77;9.43;;;;;;;;;;5013764;28;20033;-63
2022/05/10 02:26:12;;;;;;;16.98;9.93;;;;;;;;;;5010004;28;20040;-63
2022/05/10 02:29:01;;;;;;;14.98;8.85;;;;;;;;;;5008825;28;20562;-63
2022/05/10 02:31:30;;;;;;;15.18;9.05;;;;;;;;;;5013732;28;20026;-63
2022/05/10 02:33:57;;;;;;;21.40;11.50;;;;;;;;;;5013374;28;20084;-63
2022/05/10 02:36:23;;;;;;;15.10;9.25;;;;;;;;;;5012259;28;20042;-64
2022/05/10 02:38:49;;;;;;;17.98;10.70;;;;;;;;;;5012837;28;20046;-63
2022/05/10 02:41:19;;;;;;;17.48;10.98;;;;;;;;;;5013622;28;20045;-64
2022/05/10 02:43:56;;;;;;;18.45;11.73;;;;;;;;;;5013073;28;20040;-63
2022/05/10 02:46:24;;;;;;;21.92;12.68;;;;;;;;;;5011019;28;20042;-63
2022/05/10 02:48:50;;;;;;;21.83;11.63;;;;;;;;;;5036039;23;20117;-59
2022/05/10 02:51:17;;;;;;;19.63;11.35;;;;;;;;;;5031012;28;20029;-60
2022/05/10 02:53:43;;;;;;;20.80;11.65;;;;;;;;;;5031187;28;20068;-60
2022/05/10 02:56:10;;;;;;;20.60;12.05;;;;;;;;;;5029755;28;20029;-59
2022/05/10 02:58:42;;;;;;;20.00;13.02;;;;;;;;;;5031800;28;20113;-59
2022/05/10 03:01:21;;;;;;;21.48;12.90;;;;;;;;;;5032475;28;20056;-59
2022/05/10 03:03:47;;;;;;;21.52;12.35;;;;;;;;;;5014003;28;20570;-60
2022/05/10 03:06:21;;;;;;;18.25;13.07;;;;;;;;;;5032766;28;20049;-59
2022/05/10 03:08:47;;;;;;;19.33;12.73;;;;;;;;;;5031198;28;20068;-59
2022/05/10 03:11:14;;;;;;;18.20;12.73;;;;;;;;;;5012276;28;20038;-60
2022/05/10 03:13:41;;;;;;;18.80;12.57;;;;;;;;;;5032057;28;20041;-60
2022/05/10 03:16:07;;;;;;;19.15;12.93;;;;;;;;;;5031610;28;20033;-59
2022/05/10 03:18:33;;;;;;;18.35;13.27;;;;;;;;;;5031483;28;20033;-59
2022/05/10 03:20:59;;;;;;;17.02;12.48;;;;;;;;;;5031587;28;20041;-59
2022/05/10 03:23:25;;;;;;;26.50;13.70;;;;;;;;;;5032241;28;20048;-59
2022/05/10 03:25:51;;;;;;;18.40;12.93;;;;;;;;;;5032139;28;20116;-60
2022/05/10 03:28:17;;;;;;;18.85;12.77;;;;;;;;;;5029156;28;20048;-60
2022/05/10 03:30:43;;;;;;;19.92;14.23;;;;;;;;;;5032443;28;20506;-59
2022/05/10 03:33:09;;;;;;;29.63;15.70;;;;;;;;;;5032184;28;20041;-60
2022/05/10 03:35:35;;;;;;;22.23;15.15;;;;;;;;;;5031151;28;20543;-60
2022/05/10 03:38:01;;;;;;;25.40;15.30;;;;;;;;;;5013377;28;20056;-59
2022/05/10 03:40:27;;;;;;;26.48;14.90;;;;;;;;;;5013936;28;20067;-59
2022/05/10 03:42:53;;;;;;;22.30;14.93;;;;;;;;;;5030568;28;20125;-60
2022/05/10 03:45:21;;;;;;;23.15;15.02;;;;;;;;;;5030311;28;20579;-59
2022/05/10 03:47:48;;;;;;;24.70;14.88;;;;;;;;;;5024410;28;20080;-60
2022/05/10 03:50:15;;;;;;;21.55;15.25;;;;;;;;;;5031757;28;20033;-59
2022/05/10 03:52:41;;;;;;;24.70;16.05;;;;;;;;;;5036294;28;20495;-59
2022/05/10 03:55:09;;;;;;;23.90;15.43;;;;;;;;;;5031684;28;20099;-59
2022/05/10 03:57:35;;;;;;;24.05;16.27;;;;;;;;;;5030626;28;20037;-59
2022/05/10 04:00:01;;;;;;;22.42;16.35;;;;;;;;;;5030591;28;20049;-59
2022/05/10 04:02:27;;;;;;;23.42;16.40;;;;;;;;;;5020357;28;20100;-60
2022/05/10 04:04:53;;;;;;;25.20;15.63;;;;;;;;;;5026240;28;20061;-60
2022/05/10 04:07:19;;;;;;;26.33;16.40;;;;;;;;;;5022217;28;20076;-60
2022/05/10 04:09:45;;;;;;;26.63;16.77;;;;;;;;;;5030517;28;20044;-60
2022/05/10 04:12:11;;;;;;;26.05;16.20;;;;;;;;;;5029418;28;20399;-60
2022/05/10 04:14:37;;;;;;;24.95;16.23;;;;;;;;;;5026467;28;20567;-60
2022/05/10 04:17:03;;;;;;;26.13;16.40;;;;;;;;;;5026164;28;20080;-60
2022/05/10 04:19:29;;;;;;;28.15;16.15;;;;;;;;;;5008319;28;20050;-60
2022/05/10 04:21:55;;;;;;;24.52;15.98;;;;;;;;;;5029188;28;20128;-59
2022/05/10 04:24:22;;;;;;;27.70;16.48;;;;;;;;;;5028394;28;20033;-60
2022/05/10 04:26:49;;;;;;;26.60;16.25;;;;;;;;;;5027922;28;20087;-60
2022/05/10 04:29:15;;;;;;;28.17;16.10;;;;;;;;;;5026683;28;20041;-60
2022/05/10 04:31:41;;;;;;;27.50;16.20;;;;;;;;;;5030842;28;20033;-60
2022/05/10 04:34:07;;;;;;;24.27;15.50;;;;;;;;;;5028673;28;20033;-60
2022/05/10 04:36:33;;;;;;;25.25;15.90;;;;;;;;;;5028119;28;20364;-59
2022/05/10 04:38:59;;;;;;;29.85;16.80;;;;;;;;;;5030829;28;20052;-59
2022/05/10 04:41:30;;;;;;;27.17;16.30;;;;;;;;;;5029859;28;20053;-59
2022/05/10 04:44:01;;;;;;;29.60;16.45;;;;;;;;;;5029393;28;20044;-60
2022/05/10 04:46:30;;;;;;;23.83;15.40;;;;;;;;;;5008795;28;20161;-59
2022/05/10 04:48:56;;;;;;;24.90;14.93;;;;;;;;;;5028763;28;20545;-59
2022/05/10 04:51:22;;;;;;;21.73;14.65;;;;;;;;;;5027483;28;20037;-59
2022/05/10 04:53:48;;;;;;;25.38;15.10;;;;;;;;;;5030343;28;20025;-60
2022/05/10 04:56:14;;;;;;;24.65;14.88;;;;;;;;;;5029601;28;20038;-59
2022/05/10 04:58:40;;;;;;;22.50;15.02;;;;;;;;;;5030515;28;20084;-60
2022/05/10 05:01:12;;;;;;;26.38;15.73;;;;;;;;;;5028189;28;20037;-60
2022/05/10 05:03:42;;;;;;;26.27;16.58;;;;;;;;;;5030136;28;20129;-60
2022/05/10 05:06:08;;;;;;;24.13;15.70;;;;;;;;;;5020454;28;20060;-60
2022/05/10 05:08:34;;;;;;;23.20;15.55;;;;;;;;;;5029871;28;20049;-60
2022/05/10 05:11:00;;;;;;;22.70;14.98;;;;;;;;;;5030673;28;20095;-60
2022/05/10 05:13:26;;;;;;;25.52;15.02;;;;;;;;;;5030461;28;20038;-60
2022/05/10 05:15:52;;;;;;;23.27;15.75;;;;;;;;;;5028172;28;20408;-60
2022/05/10 05:18:18;;;;;;;22.58;14.55;;;;;;;;;;5034564;28;20065;-60
2022/05/10 05:20:45;;;;;;;22.70;15.15;;;;;;;;;;5034122;28;20049;-59
2022/05/10 05:23:12;;;;;;;28.85;15.25;;;;;;;;;;5031044;28;20045;-59
2022/05/10 05:25:39;;;;;;;23.20;15.38;;;;;;;;;;5031377;28;20163;-60
2022/05/10 05:28:05;;;;;;;23.90;15.05;;;;;;;;;;5034220;28;20593;-60
2022/05/10 05:30:32;;;;;;;23.23;15.35;;;;;;;;;;5031604;28;20387;-60
2022/05/10 05:32:58;;;;;;;25.85;15.07;;;;;;;;;;5028167;28;20038;-60
2022/05/10 05:35:24;;;;;;;21.88;14.32;;;;;;;;;;5014420;28;20083;-60
2022/05/10 05:37:51;;;;;;;24.45;15.38;;;;;;;;;;5015443;28;20124;-59
2022/05/10 05:40:18;;;;;;;21.08;14.57;;;;;;;;;;5032179;28;20045;-60
2022/05/10 05:42:44;;;;;;;23.23;15.65;;;;;;;;;;5016005;28;20112;-60
2022/05/10 05:45:11;;;;;;;22.42;16.42;;;;;;;;;;5034350;28;20042;-60
2022/05/10 05:47:37;;;;;;;20.02;15.10;;;;;;;;;;5034230;28;20553;-60
2022/05/10 05:50:04;;;;;;;23.70;15.30;;;;;;;;;;5027405;28;20372;-60
2022/05/10 05:52:29;;;;;;;24.33;14.85;;;;;;;;;;5028626;28;20064;-60
2022/05/10 05:54:55;;;;;;;25.55;14.98;;;;;;;;;;5023010;28;20044;-60
2022/05/10 05:57:22;;;;;;;23.48;15.13;;;;;;;;;;5027461;28;20125;-60
2022/05/10 05:59:48;;;;;;;23.25;15.32;;;;;;;;;;5032382;28;20507;-59
2022/05/10 06:02:15;;;;;;;21.17;15.68;;;;;;;;;;5032765;28;20045;-60
2022/05/10 06:04:42;;;;;;;22.17;15.90;;;;;;;;;;5027105;28;20038;-60
2022/05/10 06:07:09;;;;;;;21.55;15.88;;;;;;;;;;5028961;28;20049;-59
2022/05/10 06:09:36;;;;;;;25.65;16.63;;;;;;;;;;5010146;28;20045;-60
2022/05/10 06:12:02;;;;;;;22.38;15.32;;;;;;;;;;5025278;28;20068;-60
2022/05/10 06:14:28;;;;;;;22.17;16.20;;;;;;;;;;5030228;28;20411;-59
2022/05/10 06:16:56;;;;;;;23.77;15.85;;;;;;;;;;5029359;28;20069;-60
2022/05/10 06:19:22;;;;;;;23.98;15.60;;;;;;;;;;5016071;28;20045;-60
2022/05/10 06:21:48;;;;;;;23.40;15.68;;;;;;;;;;5033039;28;20045;-60
2022/05/10 06:24:14;;;;;;;25.42;16.17;;;;;;;;;;5027819;28;20045;-60
2022/05/10 06:26:40;;;;;;;26.67;16.48;;;;;;;;;;5028798;28;20044;-60
2022/05/10 06:29:06;;;;;;;24.27;16.55;;;;;;;;;;5031066;28;20094;-60
2022/05/10 06:31:32;;;;;;;24.45;16.70;;;;;;;;;;5031720;28;20037;-59
2022/05/10 06:33:58;;;;;;;24.77;17.60;;;;;;;;;;5032407;28;20428;-60
2022/05/10 06:36:24;;;;;;;25.63;17.50;;;;;;;;;;5014617;28;20037;-60
2022/05/10 06:38:50;;;;;;;26.70;17.92;;;;;;;;;;5021475;28;20385;-59
2022/05/10 06:41:16;;;;;;;25.45;18.13;;;;;;;;;;5029001;28;20043;-60
2022/05/10 06:43:42;;;;;;;27.33;18.17;;;;;;;;;;5029134;28;20439;-60
2022/05/10 06:46:09;;;;;;;25.15;17.45;;;;;;;;;;5010866;28;20199;-60
2022/05/10 06:48:35;;;;;;;22.17;16.17;;;;;;;;;;5026552;28;20067;-60
2022/05/10 06:51:05;;;;;;;28.23;17.40;;;;;;;;;;5023541;28;20347;-60
2022/05/10 06:53:31;;;;;;;22.83;17.10;;;;;;;;;;5024509;28;20511;-60
2022/05/10 06:55:56;;;;;;;26.15;17.00;;;;;;;;;;5024278;28;20033;-60
2022/05/10 06:58:23;;;;;;;25.35;16.50;;;;;;;;;;5008996;28;20053;-60
2022/05/10 07:00:49;;;;;;;25.60;17.13;;;;;;;;;;5043350;28;20042;-60
2022/05/10 07:03:16;;;;;;;26.48;17.13;;;;;;;;;;5028380;28;20042;-61
2022/05/10 07:05:43;;;;;;;23.02;16.60;;;;;;;;;;5027632;28;20041;-60
2022/05/10 07:08:09;;;;;;;26.85;16.60;;;;;;;;;;5023913;28;20040;-60
2022/05/10 07:10:36;;;;;;;31.95;17.58;;;;;;;;;;5028881;28;20030;-60
2022/05/10 07:13:02;;;;;;;26.25;15.98;;;;;;;;;;5012314;28;20164;-60
2022/05/10 07:15:28;;;;;;;22.50;15.80;;;;;;;;;;5025962;28;20030;-59
2022/05/10 07:17:54;;;;;;;22.60;15.50;;;;;;;;;;5010553;28;20120;-59
2022/05/10 07:20:21;;;;;;;22.63;15.32;;;;;;;;;;5030301;28;20129;-59
2022/05/10 07:22:47;;;;;;;26.85;16.55;;;;;;;;;;5031420;28;20060;-60
2022/05/10 07:25:14;;;;;;;24.60;16.27;;;;;;;;;;5026533;28;20041;-59
2022/05/10 07:27:41;;;;;;;24.55;15.43;;;;;;;;;;5027861;28;20092;-59
2022/05/10 07:30:07;;;;;;;22.55;15.13;;;;;;;;;;5031839;28;20444;-59
2022/05/10 07:32:33;;;;;;;24.20;16.17;;;;;;;;;;5030675;28;20037;-59
2022/05/10 07:35:02;;;;;;;22.23;15.00;;;;;;;;;;5030205;28;20040;-59
2022/05/10 07:37:28;;;;;;;22.88;14.48;;;;;;;;;;5028638;28;20112;-59
2022/05/10 07:39:54;;;;;;;27.25;14.27;;;;;;;;;;5027536;28;20503;-59
2022/05/10 07:42:20;;;;;;;23.50;14.57;;;;;;;;;;5028615;28;20055;-59
2022/05/10 07:44:49;;;;;;;24.77;15.10;;;;;;;;;;5029755;28;20072;-60
2022/05/10 07:47:15;;;;;;;20.70;14.48;;;;;;;;;;5030453;28;20408;-59
2022/05/10 07:49:41;;;;;;;20.58;14.30;;;;;;;;;;5027739;28;20048;-60
2022/05/10 07:52:07;;;;;;;22.25;14.88;;;;;;;;;;5021176;28;20125;-59
2022/05/10 07:54:35;;;;;;;26.25;15.07;;;;;;;;;;5028319;28;20053;-59
2022/05/10 07:57:01;;;;;;;23.42;14.43;;;;;;;;;;5031921;28;20041;-60
2022/05/10 07:59:28;;;;;;;22.77;15.38;;;;;;;;;;5043678;28;20045;-60
2022/05/10 08:01:54;;;;;;;21.77;14.65;;;;;;;;;;5029624;28;20048;-59
2022/05/10 08:04:20;;;;;;;21.55;15.20;;;;;;;;;;5028241;28;20041;-59
2022/05/10 08:06:46;;;;;;;26.48;15.82;;;;;;;;;;5021284;28;20033;-59
2022/05/10 08:09:12;;;;;;;20.13;14.50;;;;;;;;;;5029525;28;20041;-60
2022/05/10 08:11:39;;;;;;;23.83;14.30;;;;;;;;;;5028849;28;20045;-60
2022/05/10 08:14:05;;;;;;;20.70;13.60;;;;;;;;;;5028884;28;20042;-60
2022/05/10 08:16:32;;;;;;;18.10;12.90;;;;;;;;;;5012171;28;20038;-60
2022/05/10 08:18:58;;;;;;;18.17;11.98;;;;;;;;;;5028943;28;20048;-59
2022/05/10 08:21:25;;;;;;;15.55;11.30;;;;;;;;;;5030028;28;20041;-60
2022/05/10 08:23:53;;;;;;;21.30;11.45;;;;;;;;;;5029896;28;20707;-60
2022/05/10 08:26:20;;;;;;;21.40;11.90;;;;;;;;;;5029355;28;20061;-59
2022/05/10 08:28:46;;;;;;;16.70;12.02;;;;;;;;;;5027580;28;20037;-60
2022/05/10 08:31:12;;;;;;;17.00;10.15;;;;;;;;;;5030451;28;20446;-60
2022/05/10 08:33:39;;;;;;;15.32;10.35;;;;;;;;;;5028383;28;20045;-60
2022/05/10 08:36:08;;;;;;;15.90;10.80;;;;;;;;;;5029166;28;20076;-60
2022/05/10 08:38:34;;;;;;;18.95;10.40;;;;;;;;;;5030032;28;20565;-59
2022/05/10 08:41:00;;;;;;;20.50;11.55;;;;;;;;;;5031630;28;20045;-60
2022/05/10 08:43:32;;;;;;;16.48;10.60;;;;;;;;;;5028763;28;20052;-60
2022/05/10 08:45:58;;;;;;;16.70;10.68;;;;;;;;;;5028348;28;20095;-60
2022/05/10 08:48:26;;;;;;;12.13;10.10;;;;;;;;;;5028051;22;20035;-64
2022/05/10 08:50:52;;;;;;;16.65;10.48;;;;;;;;;;5031621;28;20483;-64
2022/05/10 08:53:18;;;;;;;16.02;11.00;;;;;;;;;;5035253;28;20044;-64
2022/05/10 08:56:02;;;;;;;15.98;10.40;;;;;;;;;;5035535;28;20037;-64
2022/05/10 08:58:40;;;;;;;15.05;10.57;;;;;;;;;;5035179;28;20045;-64
2022/05/10 09:01:12;;;;;;;18.60;10.90;;;;;;;;;;5034246;28;20152;-64
2022/05/10 09:03:49;;;;;;;19.13;11.32;;;;;;;;;;5035654;28;20046;-65
2022/05/10 09:06:24;;;;;;;14.63;11.18;;;;;;;;;;5035897;28;20518;-65
2022/05/10 09:08:53;;;;;;;14.57;10.77;;;;;;;;;;5034371;28;20406;-64
2022/05/10 09:11:21;;;;;;;15.00;10.43;;;;;;;;;;5035303;28;20446;-65
2022/05/10 09:13:47;;;;;;;15.02;10.43;;;;;;;;;;5035634;28;20116;-65
2022/05/10 09:16:14;;;;;;;14.48;10.27;;;;;;;;;;5034449;28;20038;-65
2022/05/10 09:18:43;;;;;;;21.50;10.75;;;;;;;;;;5034412;28;20041;-64
2022/05/10 09:21:15;;;;;;;17.35;10.57;;;;;;;;;;5034890;28;20041;-64
2022/05/10 09:23:47;;;;;;;17.88;10.18;;;;;;;;;;5035042;28;20494;-64
2022/05/10 09:26:14;;;;;;;14.48;9.43;;;;;;;;;;5034589;28;20083;-65
2022/05/10 09:28:48;;;;;;;16.65;10.23;;;;;;;;;;5034608;28;20574;-64
2022/05/10 09:37:11;;;;;;;13.07;8.52;;;;;;;;;;5034943;28;20068;-64
2022/05/10 09:39:37;;;;;;;15.18;8.65;;;;;;;;;;5034682;28;20082;-65
2022/05/10 09:42:04;;;;;;;16.60;9.25;;;;;;;;;;5034500;28;20094;-65
2022/05/10 09:44:30;;;;;;;14.77;9.10;;;;;;;;;;5033646;28;20112;-64
2022/05/10 09:47:12;;;;;;;12.32;9.18;;;;;;;;;;5034009;28;20117;-64
2022/05/10 09:49:39;;;;;;;13.35;9.40;;;;;;;;;;5033848;28;20073;-64
2022/05/10 09:52:06;;;;;;;10.68;8.80;;;;;;;;;;5033743;28;20399;-64
2022/05/10 09:54:39;;;;;;;13.63;9.68;;;;;;;;;;5034784;28;20035;-64
2022/05/10 09:57:09;;;;;;;13.75;9.35;;;;;;;;;;5034455;28;20089;-64
2022/05/10 09:59:46;;;;;;;14.05;8.68;;;;;;;;;;5033173;28;20041;-64
2022/05/10 10:02:24;;;;;;;14.10;8.73;;;;;;;;;;5016038;28;20154;-65
2022/05/10 10:04:50;;;;;;;13.65;9.30;;;;;;;;;;5035038;28;20045;-64
2022/05/10 10:07:16;;;;;;;11.13;8.32;;;;;;;;;;5033696;28;20479;-64
2022/05/10 10:09:44;;;;;;;12.23;8.38;;;;;;;;;;5034104;28;20095;-64
2022/05/10 10:12:15;;;;;;;9.80;8.30;;;;;;;;;;5033002;28;20044;-65
2022/05/10 10:14:45;;;;;;;11.23;8.70;;;;;;;;;;5033917;28;20109;-65
2022/05/10 10:17:18;;;;;;;10.23;7.82;;;;;;;;;;5033911;28;20041;-64
2022/05/10 10:19:46;;;;;;;11.25;7.45;;;;;;;;;;5033580;28;20410;-65
2022/05/10 10:22:21;;;;;;;10.43;7.93;;;;;;;;;;5032939;28;20039;-64
2022/05/10 10:24:54;;;;;;;11.73;8.43;;;;;;;;;;5033458;28;20554;-64
2022/05/10 10:27:20;;;;;;;12.43;7.80;;;;;;;;;;5034022;28;20461;-64
2022/05/10 10:29:57;;;;;;;10.48;7.55;;;;;;;;;;5034095;28;20116;-64
2022/05/10 10:32:28;;;;;;;8.27;7.38;;;;;;;;;;5032944;28;20515;-64
2022/05/10 10:35:00;;;;;;;11.10;7.35;;;;;;;;;;5033989;28;20056;-64
2022/05/10 10:37:33;;;;;;;10.18;7.55;;;;;;;;;;5032810;28;20430;-65
2022/05/10 10:40:18;;;;;;;10.65;7.43;;;;;;;;;;5033253;28;20128;-65
2022/05/10 10:42:50;;;;;;;12.27;7.72;;;;;;;;;;5033265;28;20041;-64
2022/05/10 10:45:16;;;;;;;9.38;7.63;;;;;;;;;;5033709;28;20537;-65
2022/05/10 10:47:51;;;;;;;10.48;7.63;;;;;;;;;;5033530;28;20046;-65
2022/05/10 10:50:24;;;;;;;9.68;7.50;;;;;;;;;;5032361;28;20041;-65
2022/05/10 10:52:50;;;;;;;10.88;7.40;;;;;;;;;;5033118;28;20033;-65
2022/05/10 10:55:18;;;;;;;11.18;7.45;;;;;;;;;;5033832;28;20532;-65
2022/05/10 10:57:50;;;;;;;11.75;6.85;;;;;;;;;;5032230;28;20087;-65
2022/05/10 11:00:20;;;;;;;10.95;6.63;;;;;;;;;;5032663;28;20467;-64
2022/05/10 11:02:55;;;;;;;11.60;6.27;;;;;;;;;;5033528;28;20517;-64
2022/05/10 11:05:46;;;;;;;7.28;6.28;;;;;;;;;;5032173;28;20080;-65
2022/05/10 11:08:29;;;;;;;7.88;5.95;;;;;;;;;;5032682;28;20546;-64
2022/05/10 11:10:58;;;;;;;9.65;6.55;;;;;;;;;;5033255;28;20061;-64
2022/05/10 11:13:37;;;;;;;11.43;7.13;;;;;;;;;;5032643;28;20041;-64
2022/05/10 11:16:10;;;;;;;11.20;6.60;;;;;;;;;;5032629;28;20045;-65
2022/05/10 11:18:43;;;;;;;8.98;6.70;;;;;;;;;;5031790;28;20052;-65
2022/05/10 11:21:09;;;;;;;9.43;6.28;;;;;;;;;;5030472;28;20120;-65
2022/05/10 11:23:35;;;;;;;11.63;7.30;;;;;;;;;;5032253;28;20072;-64
2022/05/10 11:26:07;;;;;;;11.75;6.72;;;;;;;;;;5032988;28;20044;-64
2022/05/10 11:28:39;;;;;;;14.20;7.22;;;;;;;;;;5032352;28;20042;-65
2022/05/10 11:31:05;;;;;;;12.50;7.25;;;;;;;;;;5032472;28;20038;-65
2022/05/10 11:33:31;;;;;;;14.85;7.97;;;;;;;;;;5031519;28;20037;-64
2022/05/10 11:36:06;;;;;;;9.15;7.00;;;;;;;;;;5032059;28;20029;-65
2022/05/10 11:38:45;;;;;;;10.63;7.50;;;;;;;;;;5024318;28;20038;-65
2022/05/10 11:41:29;;;;;;;11.50;6.60;;;;;;;;;;5015050;28;20053;-65
2022/05/10 11:44:12;;;;;;;8.52;6.70;;;;;;;;;;5032413;28;20052;-65
2022/05/10 11:46:53;;;;;;;13.10;6.35;;;;;;;;;;5032273;28;20069;-65
2022/05/10 11:49:22;;;;;;;9.48;5.88;;;;;;;;;;5030532;28;20100;-65
2022/05/10 11:51:58;;;;;;;9.13;6.20;;;;;;;;;;5031799;28;20184;-65
2022/05/10 11:54:38;;;;;;;11.43;5.75;;;;;;;;;;5032025;28;20037;-65
2022/05/10 11:57:05;;;;;;;7.95;5.05;;;;;;;;;;5032466;28;20487;-65
2022/05/10 11:59:32;;;;;;;8.70;5.45;;;;;;;;;;5031614;28;20052;-65
2022/05/10 12:01:59;;;;;;;10.18;5.82;;;;;;;;;;5032706;28;20047;-65
2022/05/10 12:04:25;;;;;;;12.85;5.65;;;;;;;;;;5031071;28;20562;-65
2022/05/10 12:06:51;;;;;;;8.38;5.00;;;;;;;;;;5031936;28;20128;-65
2022/05/10 12:09:37;;;;;;;10.55;5.30;;;;;;;;;;5030453;28;20087;-65
2022/05/10 12:12:03;;;;;;;6.80;5.22;;;;;;;;;;5013941;28;20503;-65
2022/05/10 12:23:47;;;;;;;9.70;4.60;;;;;;;;;;5031119;28;20414;-65
2022/05/10 12:26:32;;;;;;;10.15;5.43;;;;;;;;;;5031808;28;20068;-65
2022/05/10 12:28:58;;;;;;;11.25;5.88;;;;;;;;;;5030627;28;20116;-65
2022/05/10 12:31:33;;;;;;;11.35;6.97;;;;;;;;;;5032106;28;20072;-65
2022/05/10 12:34:00;;;;;;;9.07;5.78;;;;;;;;;;5031785;28;20045;-65
2022/05/10 12:36:28;;;;;;;7.93;5.07;;;;;;;;;;5031616;28;20506;-65
2022/05/10 12:38:54;;;;;;;9.43;5.80;;;;;;;;;;5030034;28;20033;-65
2022/05/10 12:41:41;;;;;;;9.18;5.63;;;;;;;;;;5031438;28;20495;-65
2022/05/10 12:44:19;;;;;;;10.07;5.50;;;;;;;;;;5031922;28;20135;-65
2022/05/10 12:46:52;;;;;;;15.63;5.43;;;;;;;;;;5031428;28;20144;-65
2022/05/10 12:49:41;;;;;;;9.93;5.45;;;;;;;;;;5031164;28;20144;-65
2022/05/10 12:52:38;;;;;;;12.50;5.25;;;;;;;;;;5031080;28;20163;-65
2022/05/10 12:55:06;;;;;;;13.85;6.07;;;;;;;;;;5030895;28;20080;-65
2022/05/10 12:57:32;;;;;;;12.15;5.38;;;;;;;;;;5031526;28;20040;-65
2022/05/10 13:00:07;;;;;;;16.00;5.30;;;;;;;;;;5031839;28;20041;-65
2022/05/10 13:02:33;;;;;;;12.32;5.80;;;;;;;;;;5031436;28;20045;-65
2022/05/10 13:05:02;;;;;;;13.52;5.28;;;;;;;;;;5031348;28;20514;-65
2022/05/10 13:07:38;;;;;;;13.90;5.13;;;;;;;;;;5030199;28;20527;-65
2022/05/10 13:10:08;;;;;;;12.02;6.45;;;;;;;;;;5030906;28;20096;-65
2022/05/10 13:12:44;;;;;;;10.52;6.13;;;;;;;;;;5031404;28;20123;-65
2022/05/10 13:15:11;;;;;;;12.10;5.50;;;;;;;;;;5031300;28;20037;-64
2022/05/10 13:17:37;;;;;;;8.98;5.30;;;;;;;;;;5031358;28;20069;-64
2022/05/10 13:20:12;;;;;;;9.48;5.85;;;;;;;;;;5029985;28;20041;-66
2022/05/10 13:22:38;;;;;;;13.73;6.72;;;;;;;;;;5031398;28;20466;-64
2022/05/10 13:25:06;;;;;;;13.40;6.20;;;;;;;;;;5030725;28;20099;-65
2022/05/10 13:27:37;;;;;;;10.82;5.20;;;;;;;;;;5030484;28;20504;-65
2022/05/10 13:30:09;;;;;;;14.45;5.32;;;;;;;;;;5030897;28;20092;-65
2022/05/10 13:32:42;;;;;;;11.68;5.28;;;;;;;;;;5031301;28;20041;-65
2022/05/10 13:35:12;;;;;;;11.85;5.00;;;;;;;;;;5029821;28;20038;-65
2022/05/10 13:37:40;;;;;;;10.65;5.25;;;;;;;;;;5031943;28;20029;-65
2022/05/10 13:40:08;;;;;;;12.45;4.90;;;;;;;;;;5032685;28;20095;-65
2022/05/10 13:42:39;;;;;;;10.32;4.60;;;;;;;;;;5027313;28;20038;-65
2022/05/10 13:45:05;;;;;;;10.23;5.28;;;;;;;;;;5033001;28;20033;-65
2022/05/10 13:47:32;;;;;;;10.75;5.28;;;;;;;;;;5034668;28;20045;-65
2022/05/10 13:49:59;;;;;;;11.45;5.13;;;;;;;;;;5034400;28;20120;-65
2022/05/10 13:52:27;;;;;;;8.13;4.97;;;;;;;;;;5034239;28;20067;-65
2022/05/10 13:54:55;;;;;;;11.18;5.35;;;;;;;;;;5034540;28;20041;-65
2022/05/10 13:57:26;;;;;;;13.52;5.20;;;;;;;;;;5033803;28;20041;-64
2022/05/10 13:59:52;;;;;;;9.30;5.10;;;;;;;;;;5033784;28;20082;-65
2022/05/10 14:02:22;;;;;;;15.18;5.82;;;;;;;;;;5034634;28;20439;-65
2022/05/10 14:04:52;;;;;;;8.37;4.50;;;;;;;;;;5034015;28;20453;-65
2022/05/10 14:07:20;;;;;;;8.18;4.45;;;;;;;;;;5034429;28;20534;-65
2022/05/10 14:09:48;;;;;;;11.13;4.30;;;;;;;;;;5033943;28;20050;-64
2022/05/10 14:12:15;;;;;;;12.38;4.60;;;;;;;;;;5033469;28;20287;-65
2022/05/10 14:14:42;;;;;;;14.82;4.25;;;;;;;;;;5034120;28;20402;-65
2022/05/10 14:17:08;;;;;;;11.30;4.47;;;;;;;;;;5033556;28;20037;-65
2022/05/10 14:19:36;;;;;;;13.52;4.05;;;;;;;;;;5034088;28;20038;-65
2022/05/10 14:22:04;;;;;;;8.02;4.20;;;;;;;;;;5033994;28;20087;-65
2022/05/10 14:24:31;;;;;;;8.40;3.97;;;;;;;;;;5033867;28;20063;-64
2022/05/10 14:27:10;;;;;;;10.25;3.65;;;;;;;;;;5033209;28;20399;-65
2022/05/10 14:29:42;;;;;;;11.65;3.50;;;;;;;;;;5026371;28;20045;-65
2022/05/10 14:32:10;;;;;;;9.68;3.85;;;;;;;;;;5033895;28;20049;-65
2022/05/10 14:34:51;;;;;;;5.95;3.35;;;;;;;;;;5033127;28;20116;-65
2022/05/10 14:37:36;;;;;;;5.88;3.42;;;;;;;;;;5033832;28;20042;-65
2022/05/10 14:40:14;;;;;;;11.20;2.95;;;;;;;;;;5032800;28;20116;-65
2022/05/10 14:42:52;;;;;;;8.70;3.20;;;;;;;;;;5027096;28;20049;-65
2022/05/10 14:45:21;;;;;;;13.00;3.40;;;;;;;;;;5033676;28;20060;-65
2022/05/10 14:47:47;;;;;;;10.30;2.90;;;;;;;;;;5033438;28;20484;-64
2022/05/10 14:50:28;;;;;;;6.20;2.47;;;;;;;;;;5033265;22;20050;-62
2022/05/10 14:53:21;;;;;;;8.65;2.92;;;;;;;;;;5014104;28;20038;-62
2022/05/10 14:55:48;;;;;;;6.75;2.63;;;;;;;;;;5001004;28;20400;-61